sensor_id;sensor_type;location;lat;lon;timestamp;P1;durP1;ratioP1;P2;durP2;ratioP2
49183;SDS011;35021;49.214;12.270;2023-03-01T00:02:11;9.27;;;7.75;;
49183;SDS011;35021;49.214;12.270;2023-03-01T00:04:38;9.05;;;7.85;;
49183;SDS011;35021;49.214;12.270;2023-03-01T00:07:05;9.40;;;8.10;;
49183;SDS011;35021;49.214;12.270;2023-03-01T00:09:31;9.45;;;7.95;;
49183;SDS011;35021;49.214;12.270;2023-03-01T00:11:58;8.55;;;7.20;;
49183;SDS011;35021;49.214;12.270;2023-03-01T00:14:25;9.77;;;7.20;;
49183;SDS011;35021;49.214;12.270;2023-03-01T00:16:52;8.63;;;7.72;;
49183;SDS011;35021;49.214;12.270;2023-03-01T00:19:20;9.45;;;7.38;;
49183;SDS011;35021;49.214;12.270;2023-03-01T00:21:48;8.35;;;7.45;;
49183;SDS011;35021;49.214;12.270;2023-03-01T00:24:15;9.32;;;7.18;;
49183;SDS011;35021;49.214;12.270;2023-03-01T00:26:42;8.05;;;7.03;;
49183;SDS011;35021;49.214;12.270;2023-03-01T00:29:09;8.32;;;7.45;;
49183;SDS011;35021;49.214;12.270;2023-03-01T00:31:36;8.57;;;7.30;;
49183;SDS011;35021;49.214;12.270;2023-03-01T00:34:03;8.85;;;7.07;;
49183;SDS011;35021;49.214;12.270;2023-03-01T00:36:32;10.13;;;7.32;;
49183;SDS011;35021;49.214;12.270;2023-03-01T00:39:01;8.63;;;7.15;;
49183;SDS011;35021;49.214;12.270;2023-03-01T00:41:30;8.95;;;7.22;;
49183;SDS011;35021;49.214;12.270;2023-03-01T00:43:57;8.73;;;7.18;;
49183;SDS011;35021;49.214;12.270;2023-03-01T00:46:24;7.85;;;6.78;;
49183;SDS011;35021;49.214;12.270;2023-03-01T00:48:53;8.45;;;7.10;;
49183;SDS011;35021;49.214;12.270;2023-03-01T00:51:22;8.43;;;7.38;;
49183;SDS011;35021;49.214;12.270;2023-03-01T00:53:51;7.13;;;6.32;;
49183;SDS011;35021;49.214;12.270;2023-03-01T00:56:19;8.05;;;7.20;;
49183;SDS011;35021;49.214;12.270;2023-03-01T00:58:46;8.48;;;6.90;;
49183;SDS011;35021;49.214;12.270;2023-03-01T01:03:55;7.35;;;6.57;;
49183;SDS011;35021;49.214;12.270;2023-03-01T01:06:32;7.78;;;6.80;;
49183;SDS011;35021;49.214;12.270;2023-03-01T01:09:00;9.48;;;6.78;;
49183;SDS011;35021;49.214;12.270;2023-03-01T01:11:29;7.90;;;6.82;;
49183;SDS011;35021;49.214;12.270;2023-03-01T01:13:56;7.75;;;6.68;;
49183;SDS011;35021;49.214;12.270;2023-03-01T01:16:24;7.80;;;6.80;;
49183;SDS011;35021;49.214;12.270;2023-03-01T01:18:53;7.72;;;6.70;;
49183;SDS011;35021;49.214;12.270;2023-03-01T01:21:21;7.63;;;6.72;;
49183;SDS011;35021;49.214;12.270;2023-03-01T01:23:50;8.38;;;7.18;;
49183;SDS011;35021;49.214;12.270;2023-03-01T01:26:19;7.22;;;6.53;;
49183;SDS011;35021;49.214;12.270;2023-03-01T01:28:47;9.75;;;6.82;;
49183;SDS011;35021;49.214;12.270;2023-03-01T01:31:15;7.68;;;6.88;;
49183;SDS011;35021;49.214;12.270;2023-03-01T01:33:43;7.47;;;6.45;;
49183;SDS011;35021;49.214;12.270;2023-03-01T01:36:10;7.85;;;7.05;;
49183;SDS011;35021;49.214;12.270;2023-03-01T01:38:38;7.35;;;6.00;;
49183;SDS011;35021;49.214;12.270;2023-03-01T01:41:05;7.20;;;6.47;;
49183;SDS011;35021;49.214;12.270;2023-03-01T01:43:34;7.38;;;6.63;;
49183;SDS011;35021;49.214;12.270;2023-03-01T01:46:04;7.28;;;6.40;;
49183;SDS011;35021;49.214;12.270;2023-03-01T01:48:41;7.55;;;6.25;;
49183;SDS011;35021;49.214;12.270;2023-03-01T01:51:13;7.43;;;6.30;;
49183;SDS011;35021;49.214;12.270;2023-03-01T01:53:46;7.63;;;6.82;;
49183;SDS011;35021;49.214;12.270;2023-03-01T01:56:16;7.78;;;6.47;;
49183;SDS011;35021;49.214;12.270;2023-03-01T01:58:44;7.07;;;6.13;;
49183;SDS011;35021;49.214;12.270;2023-03-01T02:01:13;7.32;;;6.57;;
49183;SDS011;35021;49.214;12.270;2023-03-01T02:03:41;8.07;;;7.18;;
49183;SDS011;35021;49.214;12.270;2023-03-01T02:06:19;7.50;;;6.30;;
49183;SDS011;35021;49.214;12.270;2023-03-01T02:08:57;7.60;;;6.80;;
49183;SDS011;35021;49.214;12.270;2023-03-01T02:11:27;8.27;;;7.47;;
49183;SDS011;35021;49.214;12.270;2023-03-01T02:13:55;8.40;;;7.43;;
49183;SDS011;35021;49.214;12.270;2023-03-01T02:16:22;7.82;;;7.03;;
49183;SDS011;35021;49.214;12.270;2023-03-01T02:18:49;7.82;;;7.03;;
49183;SDS011;35021;49.214;12.270;2023-03-01T02:23:59;8.35;;;7.20;;
49183;SDS011;35021;49.214;12.270;2023-03-01T02:26:46;8.45;;;7.55;;
49183;SDS011;35021;49.214;12.270;2023-03-01T02:29:16;8.50;;;7.13;;
49183;SDS011;35021;49.214;12.270;2023-03-01T02:31:43;7.78;;;6.80;;
49183;SDS011;35021;49.214;12.270;2023-03-01T02:34:11;7.40;;;6.35;;
49183;SDS011;35021;49.214;12.270;2023-03-01T02:36:45;9.60;;;7.32;;
49183;SDS011;35021;49.214;12.270;2023-03-01T02:39:15;8.52;;;7.55;;
49183;SDS011;35021;49.214;12.270;2023-03-01T02:41:51;7.18;;;6.47;;
49183;SDS011;35021;49.214;12.270;2023-03-01T02:44:20;8.23;;;7.25;;
49183;SDS011;35021;49.214;12.270;2023-03-01T02:46:48;7.82;;;6.55;;
49183;SDS011;35021;49.214;12.270;2023-03-01T02:55:02;6.97;;;6.28;;
49183;SDS011;35021;49.214;12.270;2023-03-01T02:57:36;7.70;;;6.90;;
49183;SDS011;35021;49.214;12.270;2023-03-01T03:00:16;7.68;;;6.65;;
49183;SDS011;35021;49.214;12.270;2023-03-01T03:02:52;6.97;;;6.28;;
49183;SDS011;35021;49.214;12.270;2023-03-01T03:05:21;7.30;;;6.60;;
49183;SDS011;35021;49.214;12.270;2023-03-01T03:07:50;7.15;;;6.45;;
49183;SDS011;35021;49.214;12.270;2023-03-01T03:10:19;6.72;;;6.00;;
49183;SDS011;35021;49.214;12.270;2023-03-01T03:12:54;7.22;;;6.35;;
49183;SDS011;35021;49.214;12.270;2023-03-01T03:15:24;7.22;;;6.53;;
49183;SDS011;35021;49.214;12.270;2023-03-01T03:17:52;7.25;;;6.55;;
49183;SDS011;35021;49.214;12.270;2023-03-01T03:20:21;7.13;;;6.43;;
49183;SDS011;35021;49.214;12.270;2023-03-01T03:22:51;6.93;;;5.88;;
49183;SDS011;35021;49.214;12.270;2023-03-01T03:25:20;7.88;;;6.28;;
49183;SDS011;35021;49.214;12.270;2023-03-01T03:27:48;9.07;;;6.88;;
49183;SDS011;35021;49.214;12.270;2023-03-01T03:30:27;7.93;;;6.32;;
49183;SDS011;35021;49.214;12.270;2023-03-01T03:32:56;8.93;;;7.22;;
49183;SDS011;35021;49.214;12.270;2023-03-01T03:35:28;7.25;;;6.55;;
49183;SDS011;35021;49.214;12.270;2023-03-01T03:38:01;7.72;;;6.25;;
49183;SDS011;35021;49.214;12.270;2023-03-01T03:40:34;7.05;;;5.93;;
49183;SDS011;35021;49.214;12.270;2023-03-01T03:43:04;7.15;;;6.07;;
49183;SDS011;35021;49.214;12.270;2023-03-01T03:45:32;7.95;;;7.15;;
49183;SDS011;35021;49.214;12.270;2023-03-01T03:47:59;7.40;;;6.65;;
49183;SDS011;35021;49.214;12.270;2023-03-01T03:50:27;9.48;;;6.78;;
49183;SDS011;35021;49.214;12.270;2023-03-01T03:52:54;7.95;;;6.53;;
49183;SDS011;35021;49.214;12.270;2023-03-01T03:55:21;7.57;;;6.72;;
49183;SDS011;35021;49.214;12.270;2023-03-01T03:57:48;7.20;;;6.20;;
49183;SDS011;35021;49.214;12.270;2023-03-01T04:00:18;7.20;;;6.50;;
49183;SDS011;35021;49.214;12.270;2023-03-01T04:02:47;7.75;;;6.53;;
49183;SDS011;35021;49.214;12.270;2023-03-01T04:05:15;8.43;;;6.45;;
49183;SDS011;35021;49.214;12.270;2023-03-01T04:07:44;8.85;;;7.00;;
49183;SDS011;35021;49.214;12.270;2023-03-01T04:10:16;7.50;;;6.63;;
49183;SDS011;35021;49.214;12.270;2023-03-01T04:12:43;7.10;;;6.32;;
49183;SDS011;35021;49.214;12.270;2023-03-01T04:15:11;7.70;;;6.63;;
49183;SDS011;35021;49.214;12.270;2023-03-01T04:17:44;8.82;;;6.85;;
49183;SDS011;35021;49.214;12.270;2023-03-01T04:20:14;8.30;;;6.90;;
49183;SDS011;35021;49.214;12.270;2023-03-01T04:22:43;9.98;;;6.95;;
49183;SDS011;35021;49.214;12.270;2023-03-01T04:25:13;8.07;;;6.90;;
49183;SDS011;35021;49.214;12.270;2023-03-01T04:27:40;7.68;;;6.32;;
49183;SDS011;35021;49.214;12.270;2023-03-01T04:30:08;8.88;;;6.95;;
49183;SDS011;35021;49.214;12.270;2023-03-01T04:32:35;8.10;;;6.85;;
49183;SDS011;35021;49.214;12.270;2023-03-01T04:35:02;8.05;;;7.25;;
49183;SDS011;35021;49.214;12.270;2023-03-01T04:37:29;10.35;;;7.78;;
49183;SDS011;35021;49.214;12.270;2023-03-01T04:39:56;7.35;;;6.63;;
49183;SDS011;35021;49.214;12.270;2023-03-01T04:42:23;7.97;;;7.07;;
49183;SDS011;35021;49.214;12.270;2023-03-01T04:44:50;9.05;;;7.50;;
49183;SDS011;35021;49.214;12.270;2023-03-01T04:47:17;7.97;;;7.18;;
49183;SDS011;35021;49.214;12.270;2023-03-01T04:49:44;7.70;;;6.85;;
49183;SDS011;35021;49.214;12.270;2023-03-01T04:52:11;7.78;;;6.97;;
49183;SDS011;35021;49.214;12.270;2023-03-01T04:54:37;8.95;;;7.38;;
49183;SDS011;35021;49.214;12.270;2023-03-01T04:57:04;7.38;;;6.68;;
49183;SDS011;35021;49.214;12.270;2023-03-01T04:59:31;8.27;;;7.43;;
49183;SDS011;35021;49.214;12.270;2023-03-01T05:01:58;7.97;;;6.88;;
49183;SDS011;35021;49.214;12.270;2023-03-01T05:04:26;7.93;;;7.13;;
49183;SDS011;35021;49.214;12.270;2023-03-01T05:06:53;8.20;;;7.30;;
49183;SDS011;35021;49.214;12.270;2023-03-01T05:09:20;8.63;;;7.25;;
49183;SDS011;35021;49.214;12.270;2023-03-01T05:11:47;8.35;;;7.13;;
49183;SDS011;35021;49.214;12.270;2023-03-01T05:14:14;8.50;;;7.30;;
49183;SDS011;35021;49.214;12.270;2023-03-01T05:16:41;9.13;;;7.10;;
49183;SDS011;35021;49.214;12.270;2023-03-01T05:19:08;8.85;;;7.95;;
49183;SDS011;35021;49.214;12.270;2023-03-01T05:21:44;9.20;;;7.28;;
49183;SDS011;35021;49.214;12.270;2023-03-01T05:24:30;8.45;;;7.63;;
49183;SDS011;35021;49.214;12.270;2023-03-01T05:26:58;9.30;;;7.80;;
49183;SDS011;35021;49.214;12.270;2023-03-01T05:29:27;10.98;;;8.77;;
49183;SDS011;35021;49.214;12.270;2023-03-01T05:31:56;10.80;;;8.32;;
49183;SDS011;35021;49.214;12.270;2023-03-01T05:34:25;10.00;;;9.00;;
49183;SDS011;35021;49.214;12.270;2023-03-01T05:36:53;9.65;;;8.40;;
49183;SDS011;35021;49.214;12.270;2023-03-01T05:39:21;10.07;;;8.35;;
49183;SDS011;35021;49.214;12.270;2023-03-01T05:41:56;10.63;;;9.45;;
49183;SDS011;35021;49.214;12.270;2023-03-01T05:44:25;10.07;;;8.80;;
49183;SDS011;35021;49.214;12.270;2023-03-01T05:46:52;10.32;;;8.98;;
49183;SDS011;35021;49.214;12.270;2023-03-01T05:49:20;9.73;;;8.73;;
49183;SDS011;35021;49.214;12.270;2023-03-01T05:51:51;11.43;;;8.80;;
49183;SDS011;35021;49.214;12.270;2023-03-01T05:54:20;9.57;;;8.57;;
49183;SDS011;35021;49.214;12.270;2023-03-01T05:56:48;9.57;;;8.50;;
49183;SDS011;35021;49.214;12.270;2023-03-01T05:59:15;10.60;;;8.55;;
49183;SDS011;35021;49.214;12.270;2023-03-01T06:01:42;10.73;;;8.45;;
49183;SDS011;35021;49.214;12.270;2023-03-01T06:04:10;11.15;;;8.77;;
49183;SDS011;35021;49.214;12.270;2023-03-01T06:06:37;11.30;;;8.95;;
49183;SDS011;35021;49.214;12.270;2023-03-01T06:09:04;10.07;;;8.80;;
49183;SDS011;35021;49.214;12.270;2023-03-01T06:11:33;10.70;;;9.00;;
49183;SDS011;35021;49.214;12.270;2023-03-01T06:14:01;11.63;;;9.65;;
49183;SDS011;35021;49.214;12.270;2023-03-01T06:16:28;11.85;;;10.30;;
49183;SDS011;35021;49.214;12.270;2023-03-01T06:18:55;12.88;;;9.95;;
49183;SDS011;35021;49.214;12.270;2023-03-01T06:21:22;12.20;;;10.23;;
49183;SDS011;35021;49.214;12.270;2023-03-01T06:23:49;12.02;;;10.77;;
49183;SDS011;35021;49.214;12.270;2023-03-01T06:26:15;13.52;;;11.05;;
49183;SDS011;35021;49.214;12.270;2023-03-01T06:28:42;12.43;;;10.45;;
49183;SDS011;35021;49.214;12.270;2023-03-01T06:31:12;13.75;;;10.45;;
49183;SDS011;35021;49.214;12.270;2023-03-01T06:33:39;11.93;;;10.32;;
49183;SDS011;35021;49.214;12.270;2023-03-01T06:36:06;12.50;;;10.68;;
49183;SDS011;35021;49.214;12.270;2023-03-01T06:38:33;12.63;;;10.82;;
49183;SDS011;35021;49.214;12.270;2023-03-01T06:41:00;13.90;;;11.00;;
49183;SDS011;35021;49.214;12.270;2023-03-01T06:43:28;12.05;;;10.57;;
49183;SDS011;35021;49.214;12.270;2023-03-01T06:45:55;15.20;;;11.90;;
49183;SDS011;35021;49.214;12.270;2023-03-01T06:48:22;12.77;;;10.55;;
49183;SDS011;35021;49.214;12.270;2023-03-01T06:50:49;12.23;;;10.50;;
49183;SDS011;35021;49.214;12.270;2023-03-01T06:53:16;20.13;;;11.45;;
49183;SDS011;35021;49.214;12.270;2023-03-01T06:55:42;14.63;;;11.10;;
49183;SDS011;35021;49.214;12.270;2023-03-01T06:58:09;12.80;;;10.98;;
49183;SDS011;35021;49.214;12.270;2023-03-01T07:00:37;14.77;;;11.85;;
49183;SDS011;35021;49.214;12.270;2023-03-01T07:03:06;13.30;;;11.32;;
49183;SDS011;35021;49.214;12.270;2023-03-01T07:05:33;13.85;;;11.85;;
49183;SDS011;35021;49.214;12.270;2023-03-01T07:08:00;13.18;;;10.60;;
49183;SDS011;35021;49.214;12.270;2023-03-01T07:10:27;12.82;;;10.52;;
49183;SDS011;35021;49.214;12.270;2023-03-01T07:12:55;13.90;;;12.25;;
49183;SDS011;35021;49.214;12.270;2023-03-01T07:15:23;14.15;;;12.40;;
49183;SDS011;35021;49.214;12.270;2023-03-01T07:17:50;14.50;;;12.95;;
49183;SDS011;35021;49.214;12.270;2023-03-01T07:20:18;13.95;;;12.55;;
49183;SDS011;35021;49.214;12.270;2023-03-01T07:22:51;12.85;;;11.45;;
49183;SDS011;35021;49.214;12.270;2023-03-01T07:25:18;13.05;;;10.82;;
49183;SDS011;35021;49.214;12.270;2023-03-01T07:27:48;12.15;;;10.88;;
49183;SDS011;35021;49.214;12.270;2023-03-01T07:30:16;11.38;;;10.07;;
49183;SDS011;35021;49.214;12.270;2023-03-01T07:32:43;11.27;;;9.90;;
49183;SDS011;35021;49.214;12.270;2023-03-01T07:35:11;11.63;;;10.40;;
49183;SDS011;35021;49.214;12.270;2023-03-01T07:37:38;10.70;;;9.50;;
49183;SDS011;35021;49.214;12.270;2023-03-01T07:40:05;12.13;;;10.10;;
49183;SDS011;35021;49.214;12.270;2023-03-01T07:42:33;12.52;;;10.45;;
49183;SDS011;35021;49.214;12.270;2023-03-01T07:44:59;13.18;;;10.20;;
49183;SDS011;35021;49.214;12.270;2023-03-01T07:47:26;11.63;;;10.07;;
49183;SDS011;35021;49.214;12.270;2023-03-01T07:49:53;11.00;;;9.82;;
49183;SDS011;35021;49.214;12.270;2023-03-01T07:52:20;11.65;;;10.15;;
49183;SDS011;35021;49.214;12.270;2023-03-01T07:54:46;12.07;;;10.30;;
49183;SDS011;35021;49.214;12.270;2023-03-01T07:57:13;11.73;;;10.52;;
49183;SDS011;35021;49.214;12.270;2023-03-01T07:59:40;12.23;;;10.15;;
49183;SDS011;35021;49.214;12.270;2023-03-01T08:02:08;13.30;;;10.90;;
49183;SDS011;35021;49.214;12.270;2023-03-01T08:04:36;10.70;;;9.40;;
49183;SDS011;35021;49.214;12.270;2023-03-01T08:07:04;13.15;;;10.40;;
49183;SDS011;35021;49.214;12.270;2023-03-01T08:09:34;11.85;;;10.55;;
49183;SDS011;35021;49.214;12.270;2023-03-01T08:12:03;13.27;;;11.18;;
49183;SDS011;35021;49.214;12.270;2023-03-01T08:14:31;16.08;;;11.80;;
49183;SDS011;35021;49.214;12.270;2023-03-01T08:16:58;17.35;;;13.77;;
49183;SDS011;35021;49.214;12.270;2023-03-01T08:19:25;17.75;;;14.05;;
49183;SDS011;35021;49.214;12.270;2023-03-01T08:21:54;17.67;;;13.80;;
49183;SDS011;35021;49.214;12.270;2023-03-01T08:24:21;18.65;;;14.10;;
49183;SDS011;35021;49.214;12.270;2023-03-01T08:26:49;17.20;;;13.20;;
49183;SDS011;35021;49.214;12.270;2023-03-01T08:29:15;16.85;;;11.73;;
49183;SDS011;35021;49.214;12.270;2023-03-01T08:31:42;16.17;;;12.02;;
49183;SDS011;35021;49.214;12.270;2023-03-01T08:34:12;13.23;;;10.32;;
49183;SDS011;35021;49.214;12.270;2023-03-01T08:36:41;14.50;;;12.02;;
49183;SDS011;35021;49.214;12.270;2023-03-01T08:39:10;13.68;;;10.40;;
49183;SDS011;35021;49.214;12.270;2023-03-01T08:41:39;13.93;;;10.82;;
49183;SDS011;35021;49.214;12.270;2023-03-01T08:44:06;12.07;;;10.27;;
49183;SDS011;35021;49.214;12.270;2023-03-01T08:46:37;13.52;;;10.73;;
49183;SDS011;35021;49.214;12.270;2023-03-01T08:49:11;12.80;;;10.32;;
49183;SDS011;35021;49.214;12.270;2023-03-01T08:51:43;12.88;;;10.02;;
49183;SDS011;35021;49.214;12.270;2023-03-01T08:54:12;12.35;;;9.63;;
49183;SDS011;35021;49.214;12.270;2023-03-01T08:56:41;14.30;;;10.63;;
49183;SDS011;35021;49.214;12.270;2023-03-01T08:59:09;11.77;;;9.60;;
49183;SDS011;35021;49.214;12.270;2023-03-01T09:01:37;11.10;;;9.90;;
49183;SDS011;35021;49.214;12.270;2023-03-01T09:04:04;10.93;;;9.10;;
49183;SDS011;35021;49.214;12.270;2023-03-01T09:06:32;13.65;;;9.82;;
49183;SDS011;35021;49.214;12.270;2023-03-01T09:09:00;10.63;;;9.15;;
49183;SDS011;35021;49.214;12.270;2023-03-01T09:11:28;13.82;;;8.80;;
49183;SDS011;35021;49.214;12.270;2023-03-01T09:13:55;10.65;;;8.68;;
49183;SDS011;35021;49.214;12.270;2023-03-01T09:16:23;11.20;;;8.65;;
49183;SDS011;35021;49.214;12.270;2023-03-01T09:18:53;9.48;;;8.45;;
49183;SDS011;35021;49.214;12.270;2023-03-01T09:21:21;10.65;;;8.27;;
49183;SDS011;35021;49.214;12.270;2023-03-01T09:24:05;11.07;;;8.65;;
49183;SDS011;35021;49.214;12.270;2023-03-01T09:26:37;12.25;;;8.55;;
49183;SDS011;35021;49.214;12.270;2023-03-01T09:29:04;11.88;;;8.93;;
49183;SDS011;35021;49.214;12.270;2023-03-01T09:31:31;11.82;;;9.45;;
49183;SDS011;35021;49.214;12.270;2023-03-01T09:33:58;10.75;;;8.73;;
49183;SDS011;35021;49.214;12.270;2023-03-01T09:36:25;11.80;;;9.45;;
49183;SDS011;35021;49.214;12.270;2023-03-01T09:38:52;11.15;;;8.82;;
49183;SDS011;35021;49.214;12.270;2023-03-01T09:47:18;10.80;;;9.00;;
49183;SDS011;35021;49.214;12.270;2023-03-01T09:52:36;11.57;;;8.52;;
49183;SDS011;35021;49.214;12.270;2023-03-01T09:55:16;11.63;;;9.23;;
49183;SDS011;35021;49.214;12.270;2023-03-01T10:00:50;9.98;;;8.40;;
49183;SDS011;35021;49.214;12.270;2023-03-01T10:08:26;10.13;;;8.70;;
49183;SDS011;35021;49.214;12.270;2023-03-01T10:10:53;11.95;;;8.82;;
49183;SDS011;35021;49.214;12.270;2023-03-01T10:13:33;9.68;;;8.25;;
49183;SDS011;35021;49.214;12.270;2023-03-01T10:16:16;12.23;;;9.43;;
49183;SDS011;35021;49.214;12.270;2023-03-01T10:18:51;10.52;;;8.68;;
49183;SDS011;35021;49.214;12.270;2023-03-01T10:21:23;13.30;;;9.05;;
49183;SDS011;35021;49.214;12.270;2023-03-01T10:23:50;10.98;;;9.00;;
49183;SDS011;35021;49.214;12.270;2023-03-01T10:26:29;10.70;;;8.13;;
49183;SDS011;35021;49.214;12.270;2023-03-01T10:29:07;12.70;;;8.48;;
49183;SDS011;35021;49.214;12.270;2023-03-01T10:31:49;10.50;;;8.05;;
49183;SDS011;35021;49.214;12.270;2023-03-01T10:34:19;8.40;;;7.45;;
49183;SDS011;35021;49.214;12.270;2023-03-01T10:36:50;9.45;;;7.80;;
49183;SDS011;35021;49.214;12.270;2023-03-01T10:39:20;9.57;;;7.72;;
49183;SDS011;35021;49.214;12.270;2023-03-01T10:41:56;9.35;;;7.82;;
49183;SDS011;35021;49.214;12.270;2023-03-01T10:44:36;9.70;;;7.70;;
49183;SDS011;35021;49.214;12.270;2023-03-01T10:47:24;9.05;;;7.40;;
49183;SDS011;35021;49.214;12.270;2023-03-01T10:49:57;10.75;;;8.23;;
49183;SDS011;35021;49.214;12.270;2023-03-01T10:52:30;9.90;;;7.88;;
49183;SDS011;35021;49.214;12.270;2023-03-01T10:57:39;9.63;;;8.05;;
49183;SDS011;35021;49.214;12.270;2023-03-01T11:00:22;10.20;;;8.38;;
49183;SDS011;35021;49.214;12.270;2023-03-01T11:03:13;9.82;;;8.00;;
49183;SDS011;35021;49.214;12.270;2023-03-01T11:05:57;10.98;;;7.78;;
49183;SDS011;35021;49.214;12.270;2023-03-01T11:08:35;10.13;;;7.65;;
49183;SDS011;35021;49.214;12.270;2023-03-01T11:19:30;10.75;;;7.78;;
49183;SDS011;35021;49.214;12.270;2023-03-01T11:21:59;11.40;;;8.25;;
49183;SDS011;35021;49.214;12.270;2023-03-01T11:24:33;8.98;;;7.25;;
49183;SDS011;35021;49.214;12.270;2023-03-01T11:27:24;9.68;;;8.65;;
49183;SDS011;35021;49.214;12.270;2023-03-01T11:35:18;13.45;;;8.20;;
49183;SDS011;35021;49.214;12.270;2023-03-01T11:40:29;10.00;;;7.93;;
49183;SDS011;35021;49.214;12.270;2023-03-01T11:43:02;9.70;;;8.27;;
49183;SDS011;35021;49.214;12.270;2023-03-01T11:51:20;11.88;;;9.27;;
49183;SDS011;35021;49.214;12.270;2023-03-01T11:54:01;11.77;;;9.05;;
49183;SDS011;35021;49.214;12.270;2023-03-01T11:56:41;11.82;;;9.48;;
49183;SDS011;35021;49.214;12.270;2023-03-01T12:04:35;11.32;;;9.38;;
49183;SDS011;35021;49.214;12.270;2023-03-01T12:07:11;11.68;;;9.65;;
49183;SDS011;35021;49.214;12.270;2023-03-01T12:18:15;11.63;;;9.85;;
49183;SDS011;35021;49.214;12.270;2023-03-01T12:21:05;12.00;;;10.30;;
49183;SDS011;35021;49.214;12.270;2023-03-01T12:24:03;12.70;;;9.20;;
49183;SDS011;35021;49.214;12.270;2023-03-01T12:29:31;10.73;;;9.02;;
49183;SDS011;35021;49.214;12.270;2023-03-01T12:35:11;10.15;;;9.05;;
49183;SDS011;35021;49.214;12.270;2023-03-01T12:49:02;10.00;;;8.95;;
49183;SDS011;35021;49.214;12.270;2023-03-01T12:51:42;12.13;;;8.90;;
49183;SDS011;35021;49.214;12.270;2023-03-01T12:54:18;13.75;;;10.27;;
49183;SDS011;35021;49.214;12.270;2023-03-01T12:57:16;12.00;;;9.63;;
49183;SDS011;35021;49.214;12.270;2023-03-01T13:00:09;11.30;;;10.05;;
49183;SDS011;35021;49.214;12.270;2023-03-01T13:02:56;13.23;;;10.20;;
49183;SDS011;35021;49.214;12.270;2023-03-01T13:05:28;12.38;;;10.93;;
49183;SDS011;35021;49.214;12.270;2023-03-01T13:08:14;13.02;;;10.70;;
49183;SDS011;35021;49.214;12.270;2023-03-01T13:10:55;11.73;;;10.13;;
49183;SDS011;35021;49.214;12.270;2023-03-01T13:13:26;10.75;;;9.65;;
49183;SDS011;35021;49.214;12.270;2023-03-01T13:15:55;12.63;;;10.68;;
49183;SDS011;35021;49.214;12.270;2023-03-01T13:20:51;11.93;;;9.27;;
49183;SDS011;35021;49.214;12.270;2023-03-01T13:31:07;11.05;;;9.57;;
49183;SDS011;35021;49.214;12.270;2023-03-01T13:33:55;12.25;;;9.30;;
49183;SDS011;35021;49.214;12.270;2023-03-01T13:38:56;11.02;;;9.73;;
49183;SDS011;35021;49.214;12.270;2023-03-01T13:44:21;10.95;;;9.43;;
49183;SDS011;35021;49.214;12.270;2023-03-01T13:46:48;11.85;;;10.05;;
49183;SDS011;35021;49.214;12.270;2023-03-01T13:49:23;11.65;;;9.60;;
49183;SDS011;35021;49.214;12.270;2023-03-01T13:52:25;13.07;;;10.00;;
49183;SDS011;35021;49.214;12.270;2023-03-01T13:55:00;12.70;;;9.73;;
49183;SDS011;35021;49.214;12.270;2023-03-01T13:57:32;10.65;;;9.40;;
49183;SDS011;35021;49.214;12.270;2023-03-01T14:00:01;10.52;;;9.43;;
49183;SDS011;35021;49.214;12.270;2023-03-01T14:02:31;11.77;;;9.55;;
49183;SDS011;35021;49.214;12.270;2023-03-01T14:04:58;11.15;;;9.00;;
49183;SDS011;35021;49.214;12.270;2023-03-01T14:07:27;11.40;;;9.98;;
49183;SDS011;35021;49.214;12.270;2023-03-01T14:09:57;12.23;;;9.55;;
49183;SDS011;35021;49.214;12.270;2023-03-01T14:12:49;11.25;;;9.32;;
49183;SDS011;35021;49.214;12.270;2023-03-01T14:15:47;10.50;;;8.95;;
49183;SDS011;35021;49.214;12.270;2023-03-01T14:18:30;9.32;;;8.10;;
49183;SDS011;35021;49.214;12.270;2023-03-01T14:21:13;10.52;;;7.85;;
49183;SDS011;35021;49.214;12.270;2023-03-01T14:23:40;10.15;;;8.27;;
49183;SDS011;35021;49.214;12.270;2023-03-01T14:26:08;7.93;;;7.13;;
49183;SDS011;35021;49.214;12.270;2023-03-01T14:28:38;8.40;;;7.50;;
49183;SDS011;35021;49.214;12.270;2023-03-01T14:34:21;9.75;;;7.65;;
49183;SDS011;35021;49.214;12.270;2023-03-01T14:36:49;7.60;;;6.60;;
49183;SDS011;35021;49.214;12.270;2023-03-01T14:39:20;9.25;;;7.60;;
49183;SDS011;35021;49.214;12.270;2023-03-01T14:41:52;8.82;;;7.32;;
49183;SDS011;35021;49.214;12.270;2023-03-01T14:44:20;9.07;;;7.63;;
49183;SDS011;35021;49.214;12.270;2023-03-01T14:46:51;8.70;;;7.13;;
49183;SDS011;35021;49.214;12.270;2023-03-01T14:49:24;9.68;;;7.47;;
49183;SDS011;35021;49.214;12.270;2023-03-01T14:52:06;8.70;;;7.43;;
49183;SDS011;35021;49.214;12.270;2023-03-01T14:54:44;10.48;;;7.90;;
49183;SDS011;35021;49.214;12.270;2023-03-01T14:57:25;8.73;;;7.05;;
49183;SDS011;35021;49.214;12.270;2023-03-01T14:59:53;8.40;;;7.30;;
49183;SDS011;35021;49.214;12.270;2023-03-01T15:02:26;9.35;;;7.82;;
49183;SDS011;35021;49.214;12.270;2023-03-01T15:04:56;9.32;;;7.57;;
49183;SDS011;35021;49.214;12.270;2023-03-01T15:07:29;8.93;;;7.20;;
49183;SDS011;35021;49.214;12.270;2023-03-01T15:09:58;11.23;;;7.80;;
49183;SDS011;35021;49.214;12.270;2023-03-01T15:15:19;10.48;;;8.35;;
49183;SDS011;35021;49.214;12.270;2023-03-01T15:18:14;9.32;;;7.68;;
49183;SDS011;35021;49.214;12.270;2023-03-01T15:20:44;10.63;;;7.80;;
49183;SDS011;35021;49.214;12.270;2023-03-01T15:23:25;8.73;;;7.75;;
49183;SDS011;35021;49.214;12.270;2023-03-01T15:25:54;11.05;;;8.95;;
49183;SDS011;35021;49.214;12.270;2023-03-01T15:28:30;9.10;;;7.97;;
49183;SDS011;35021;49.214;12.270;2023-03-01T15:31:01;10.27;;;7.95;;
49183;SDS011;35021;49.214;12.270;2023-03-01T15:33:49;9.43;;;8.05;;
49183;SDS011;35021;49.214;12.270;2023-03-01T15:41:56;9.45;;;7.88;;
49183;SDS011;35021;49.214;12.270;2023-03-01T15:44:27;9.90;;;8.02;;
49183;SDS011;35021;49.214;12.270;2023-03-01T15:47:22;9.02;;;7.20;;
49183;SDS011;35021;49.214;12.270;2023-03-01T15:49:51;9.68;;;7.68;;
49183;SDS011;35021;49.214;12.270;2023-03-01T15:52:22;9.65;;;7.53;;
49183;SDS011;35021;49.214;12.270;2023-03-01T15:54:56;11.13;;;7.97;;
49183;SDS011;35021;49.214;12.270;2023-03-01T15:57:27;9.18;;;8.05;;
49183;SDS011;35021;49.214;12.270;2023-03-01T15:59:54;9.77;;;7.72;;
49183;SDS011;35021;49.214;12.270;2023-03-01T16:02:22;10.43;;;8.07;;
49183;SDS011;35021;49.214;12.270;2023-03-01T16:04:50;9.20;;;7.60;;
49183;SDS011;35021;49.214;12.270;2023-03-01T16:07:17;9.75;;;7.30;;
49183;SDS011;35021;49.214;12.270;2023-03-01T16:09:44;10.02;;;7.82;;
49183;SDS011;35021;49.214;12.270;2023-03-01T16:12:14;11.70;;;8.50;;
49183;SDS011;35021;49.214;12.270;2023-03-01T16:14:42;10.43;;;7.95;;
49183;SDS011;35021;49.214;12.270;2023-03-01T16:17:09;9.57;;;7.95;;
49183;SDS011;35021;49.214;12.270;2023-03-01T16:19:37;9.38;;;8.38;;
49183;SDS011;35021;49.214;12.270;2023-03-01T16:22:04;9.32;;;7.97;;
49183;SDS011;35021;49.214;12.270;2023-03-01T16:24:31;9.80;;;8.13;;
49183;SDS011;35021;49.214;12.270;2023-03-01T16:26:58;9.63;;;8.10;;
49183;SDS011;35021;49.214;12.270;2023-03-01T16:29:25;11.32;;;8.40;;
49183;SDS011;35021;49.214;12.270;2023-03-01T16:31:52;9.65;;;8.10;;
49183;SDS011;35021;49.214;12.270;2023-03-01T16:34:20;9.52;;;8.07;;
49183;SDS011;35021;49.214;12.270;2023-03-01T16:36:48;8.68;;;7.78;;
49183;SDS011;35021;49.214;12.270;2023-03-01T16:39:15;10.43;;;8.10;;